Time;durP1;ratioP1;P1;durP2;ratioP2;P2;SDS_P1;SDS_P2;PMS_P1;PMS_P2;Temp;Humidity;BMP_temperature;BMP_pressure;BME280_temperature;BME280_humidity;BME280_pressure;Samples;Min_cycle;Max_cycle;Signal;HPM_P1;HPM_P2
2022/01/31 00:01:15;;;;;;;11.48;3.97;;;;;;;;;;4984329;28;20026;-72
2022/01/31 00:03:41;;;;;;;11.15;3.10;;;;;;;;;;4982078;28;20106;-71
2022/01/31 00:06:07;;;;;;;10.30;4.30;;;;;;;;;;4977932;28;20615;-71
2022/01/31 00:08:33;;;;;;;12.57;4.22;;;;;;;;;;4983277;28;20043;-71
2022/01/31 00:10:59;;;;;;;11.02;3.25;;;;;;;;;;4985140;28;20026;-72
2022/01/31 00:13:42;;;;;;;6.43;2.85;;;;;;;;;;4980463;28;20058;-72
2022/01/31 00:16:14;;;;;;;9.73;3.58;;;;;;;;;;4988753;28;20110;-73
2022/01/31 00:18:40;;;;;;;12.23;3.35;;;;;;;;;;4979497;28;20019;-71
2022/01/31 00:21:06;;;;;;;13.07;4.78;;;;;;;;;;4988826;28;20071;-73
2022/01/31 00:23:33;;;;;;;11.52;3.15;;;;;;;;;;4988433;28;20030;-73
2022/01/31 00:25:59;;;;;;;16.50;4.90;;;;;;;;;;4979624;28;20121;-72
2022/01/31 00:28:25;;;;;;;14.45;3.20;;;;;;;;;;4982243;28;20053;-72
2022/01/31 00:30:51;;;;;;;10.55;3.22;;;;;;;;;;4982871;28;20029;-71
2022/01/31 00:33:17;;;;;;;12.98;4.35;;;;;;;;;;4979809;28;20243;-70
2022/01/31 00:35:43;;;;;;;7.75;3.25;;;;;;;;;;4973324;28;20023;-71
2022/01/31 00:38:09;;;;;;;8.93;2.80;;;;;;;;;;4979168;28;20055;-71
2022/01/31 00:40:41;;;;;;;12.18;3.40;;;;;;;;;;4975634;28;20027;-71
2022/01/31 00:43:11;;;;;;;11.43;3.22;;;;;;;;;;4973136;28;20027;-71
2022/01/31 00:45:44;;;;;;;10.02;3.42;;;;;;;;;;4980543;28;20435;-72
2022/01/31 00:48:16;;;;;;;8.73;3.25;;;;;;;;;;4985951;28;20033;-71
2022/01/31 00:50:46;;;;;;;9.25;3.10;;;;;;;;;;4975722;28;20504;-72
2022/01/31 00:53:12;;;;;;;14.85;3.10;;;;;;;;;;4986414;28;20041;-70
2022/01/31 00:55:38;;;;;;;11.65;4.18;;;;;;;;;;4975516;28;20090;-71
2022/01/31 00:58:05;;;;;;;9.20;3.00;;;;;;;;;;4983567;28;20041;-71
2022/01/31 01:00:31;;;;;;;7.63;2.65;;;;;;;;;;4981500;28;20055;-71
2022/01/31 01:02:57;;;;;;;13.10;4.53;;;;;;;;;;4986561;28;20031;-71
2022/01/31 01:05:23;;;;;;;9.57;2.80;;;;;;;;;;4975545;28;20493;-71
2022/01/31 01:07:49;;;;;;;14.95;2.90;;;;;;;;;;4976996;28;20054;-71
2022/01/31 01:10:17;;;;;;;13.70;3.22;;;;;;;;;;4975577;28;20053;-72
2022/01/31 01:12:44;;;;;;;8.30;2.60;;;;;;;;;;4974616;28;20038;-70
2022/01/31 01:15:10;;;;;;;8.30;2.80;;;;;;;;;;4990502;28;20027;-72
2022/01/31 01:17:36;;;;;;;12.60;2.88;;;;;;;;;;4984550;28;20031;-71
2022/01/31 01:20:04;;;;;;;11.82;2.95;;;;;;;;;;4983603;28;20055;-71
2022/01/31 01:22:30;;;;;;;11.00;3.13;;;;;;;;;;4978594;28;20082;-71
2022/01/31 01:24:56;;;;;;;10.00;3.55;;;;;;;;;;4990130;28;20425;-72
2022/01/31 01:27:23;;;;;;;12.50;3.10;;;;;;;;;;4975241;28;20579;-71
2022/01/31 01:29:49;;;;;;;9.23;3.42;;;;;;;;;;4978300;28;20037;-71
2022/01/31 01:32:16;;;;;;;7.97;2.70;;;;;;;;;;4973939;28;20515;-71
2022/01/31 01:34:43;;;;;;;13.55;3.55;;;;;;;;;;4978804;28;20039;-72
2022/01/31 01:37:09;;;;;;;8.73;2.95;;;;;;;;;;4976234;28;21149;-72
2022/01/31 01:39:35;;;;;;;9.98;3.20;;;;;;;;;;4995224;28;20121;-71
2022/01/31 01:42:01;;;;;;;10.63;2.88;;;;;;;;;;4978471;28;20025;-71
2022/01/31 01:44:42;;;;;;;13.40;3.60;;;;;;;;;;4980196;28;20030;-71
2022/01/31 01:47:08;;;;;;;10.20;3.78;;;;;;;;;;4978732;28;20074;-71
2022/01/31 01:49:34;;;;;;;13.38;3.38;;;;;;;;;;4978948;28;20034;-70
2022/01/31 01:52:01;;;;;;;6.68;3.03;;;;;;;;;;4983634;28;20085;-72
2022/01/31 01:54:27;;;;;;;10.40;3.83;;;;;;;;;;4980068;28;20041;-72
2022/01/31 01:56:54;;;;;;;14.15;3.35;;;;;;;;;;4992495;28;20030;-72
2022/01/31 01:59:20;;;;;;;9.88;3.42;;;;;;;;;;4976550;28;20035;-70
2022/01/31 02:01:46;;;;;;;12.32;3.15;;;;;;;;;;4987729;28;20109;-71
2022/01/31 02:04:12;;;;;;;11.18;2.85;;;;;;;;;;4980542;28;20042;-72
2022/01/31 02:06:40;;;;;;;11.65;2.72;;;;;;;;;;4982865;28;20030;-71
2022/01/31 02:09:06;;;;;;;10.30;3.53;;;;;;;;;;4987228;28;20046;-71
2022/01/31 02:11:32;;;;;;;10.68;3.03;;;;;;;;;;4984752;28;20127;-72
2022/01/31 02:13:58;;;;;;;9.52;3.40;;;;;;;;;;4980398;28;20110;-71
2022/01/31 02:16:24;;;;;;;5.07;2.50;;;;;;;;;;4978581;28;20030;-72
2022/01/31 02:18:53;;;;;;;10.18;3.25;;;;;;;;;;4982884;28;20385;-71
2022/01/31 02:21:19;;;;;;;11.30;3.78;;;;;;;;;;4994908;28;20082;-71
2022/01/31 02:23:45;;;;;;;11.63;3.35;;;;;;;;;;4987300;28;20114;-71
2022/01/31 02:26:12;;;;;;;10.98;3.55;;;;;;;;;;4987750;28;20026;-71
2022/01/31 02:28:39;;;;;;;10.65;3.67;;;;;;;;;;4989155;28;20030;-72
2022/01/31 02:31:06;;;;;;;10.40;2.88;;;;;;;;;;4981255;28;20606;-71
2022/01/31 02:33:32;;;;;;;10.50;2.50;;;;;;;;;;4982963;28;20034;-72
2022/01/31 02:36:00;;;;;;;9.43;2.70;;;;;;;;;;4982684;28;20022;-71
2022/01/31 02:38:26;;;;;;;12.18;3.58;;;;;;;;;;4978684;28;20034;-71
2022/01/31 02:40:52;;;;;;;8.95;2.80;;;;;;;;;;4982683;28;20023;-71
2022/01/31 02:43:19;;;;;;;9.68;2.90;;;;;;;;;;4981966;28;20035;-71
2022/01/31 02:45:45;;;;;;;11.77;3.08;;;;;;;;;;4990671;28;20054;-71
2022/01/31 02:48:14;;;;;;;9.63;2.95;;;;;;;;;;4987359;28;20030;-71
2022/01/31 02:50:40;;;;;;;8.85;2.65;;;;;;;;;;4982857;28;20117;-71
2022/01/31 02:53:12;;;;;;;11.02;2.95;;;;;;;;;;4984037;28;20542;-72
2022/01/31 02:55:39;;;;;;;10.05;2.90;;;;;;;;;;4979676;28;20119;-72
2022/01/31 02:58:05;;;;;;;5.38;2.38;;;;;;;;;;5004248;28;20034;-71
2022/01/31 03:00:31;;;;;;;7.25;2.92;;;;;;;;;;4984700;28;20031;-72
2022/01/31 03:02:58;;;;;;;10.75;3.03;;;;;;;;;;4998041;28;20113;-70
2022/01/31 03:05:24;;;;;;;11.32;3.10;;;;;;;;;;4987376;28;20046;-71
2022/01/31 03:07:50;;;;;;;10.43;4.05;;;;;;;;;;4981206;28;20508;-71
2022/01/31 03:10:16;;;;;;;10.20;2.72;;;;;;;;;;4978294;28;20089;-72
2022/01/31 03:12:42;;;;;;;9.65;3.70;;;;;;;;;;4981676;28;20115;-72
2022/01/31 03:15:08;;;;;;;12.27;3.40;;;;;;;;;;4986742;28;20037;-72
2022/01/31 03:17:35;;;;;;;7.70;2.85;;;;;;;;;;4979782;28;20043;-71
2022/01/31 03:20:01;;;;;;;7.72;2.75;;;;;;;;;;4982752;28;20030;-71
2022/01/31 03:22:30;;;;;;;7.20;2.80;;;;;;;;;;4979163;28;20082;-72
2022/01/31 03:24:56;;;;;;;11.98;3.28;;;;;;;;;;4981330;28;20109;-71
2022/01/31 03:27:22;;;;;;;9.85;3.50;;;;;;;;;;4983305;28;20053;-71
2022/01/31 03:29:48;;;;;;;10.57;2.60;;;;;;;;;;4984211;28;20019;-72
2022/01/31 03:32:14;;;;;;;11.25;3.08;;;;;;;;;;4979142;28;20106;-71
2022/01/31 03:34:40;;;;;;;11.07;2.88;;;;;;;;;;4977284;28;20551;-72
2022/01/31 03:37:06;;;;;;;8.27;2.53;;;;;;;;;;4986198;28;20380;-72
2022/01/31 03:39:32;;;;;;;11.95;2.70;;;;;;;;;;4980287;28;20027;-71
2022/01/31 03:41:58;;;;;;;9.95;2.60;;;;;;;;;;4983643;28;20121;-71
2022/01/31 03:44:24;;;;;;;15.20;3.08;;;;;;;;;;4983229;28;20486;-72
2022/01/31 03:46:51;;;;;;;12.40;2.78;;;;;;;;;;4981531;28;20552;-71
2022/01/31 03:49:17;;;;;;;10.85;3.10;;;;;;;;;;4977412;28;20026;-72
2022/01/31 03:51:43;;;;;;;15.27;3.45;;;;;;;;;;4978985;28;20034;-72
2022/01/31 03:54:09;;;;;;;10.77;3.28;;;;;;;;;;4986172;28;20053;-71
2022/01/31 03:56:37;;;;;;;10.38;3.40;;;;;;;;;;4977779;28;20082;-72
2022/01/31 03:59:03;;;;;;;14.85;3.83;;;;;;;;;;4980643;28;20026;-71
2022/01/31 04:01:29;;;;;;;13.00;2.83;;;;;;;;;;4983470;28;20027;-71
2022/01/31 04:03:55;;;;;;;10.75;2.92;;;;;;;;;;4985306;28;20679;-72
2022/01/31 04:06:23;;;;;;;9.48;2.78;;;;;;;;;;4978692;28;20030;-71
2022/01/31 04:08:49;;;;;;;10.02;3.33;;;;;;;;;;4984193;28;20093;-72
2022/01/31 04:11:15;;;;;;;9.52;3.10;;;;;;;;;;4979885;28;20031;-71
2022/01/31 04:13:41;;;;;;;11.40;2.90;;;;;;;;;;4981131;28;20029;-71
2022/01/31 04:16:07;;;;;;;6.20;2.75;;;;;;;;;;4978232;28;20026;-71
2022/01/31 04:18:34;;;;;;;14.05;3.20;;;;;;;;;;4985565;28;20478;-72
2022/01/31 04:21:00;;;;;;;12.00;3.83;;;;;;;;;;4979221;28;20049;-70
2022/01/31 04:23:28;;;;;;;13.15;3.17;;;;;;;;;;4985252;28;20065;-72
2022/01/31 04:26:02;;;;;;;12.38;3.22;;;;;;;;;;4983250;28;20077;-71
2022/01/31 04:28:39;;;;;;;16.50;2.80;;;;;;;;;;4974371;28;20717;-70
2022/01/31 04:33:47;;;;;;;9.68;3.47;;;;;;;;;;4980955;28;20053;-71
2022/01/31 04:36:14;;;;;;;11.65;3.58;;;;;;;;;;4979178;28;20099;-70
2022/01/31 04:38:41;;;;;;;12.63;3.03;;;;;;;;;;4983376;28;20117;-71
2022/01/31 04:41:07;;;;;;;10.43;3.58;;;;;;;;;;4977691;28;20023;-71
2022/01/31 04:43:33;;;;;;;7.78;3.38;;;;;;;;;;4978047;28;20058;-70
2022/01/31 04:46:02;;;;;;;14.85;3.42;;;;;;;;;;4978659;28;20440;-70
2022/01/31 04:48:28;;;;;;;10.57;3.22;;;;;;;;;;4981525;28;20500;-73
2022/01/31 04:50:55;;;;;;;10.52;2.95;;;;;;;;;;4978453;28;20035;-72
2022/01/31 04:53:21;;;;;;;9.85;2.95;;;;;;;;;;4985438;28;20031;-70
2022/01/31 04:55:47;;;;;;;11.45;2.65;;;;;;;;;;4989802;28;20057;-71
2022/01/31 04:58:14;;;;;;;11.63;3.55;;;;;;;;;;4986425;28;20109;-71
2022/01/31 05:00:40;;;;;;;16.48;3.42;;;;;;;;;;4980518;28;20058;-71
2022/01/31 05:03:15;;;;;;;16.08;4.13;;;;;;;;;;4978197;28;20495;-71
2022/01/31 05:05:41;;;;;;;8.45;3.22;;;;;;;;;;4983195;28;20489;-71
2022/01/31 05:08:08;;;;;;;9.10;2.88;;;;;;;;;;4984792;28;20070;-71
2022/01/31 05:10:35;;;;;;;9.13;2.97;;;;;;;;;;4976792;28;20061;-72
2022/01/31 05:13:01;;;;;;;11.57;2.80;;;;;;;;;;4986892;28;20497;-71
2022/01/31 05:15:27;;;;;;;6.53;2.10;;;;;;;;;;4983177;28;20026;-71
2022/01/31 05:17:53;;;;;;;7.65;3.75;;;;;;;;;;4984581;28;20018;-71
2022/01/31 05:20:20;;;;;;;9.00;4.22;;;;;;;;;;4982933;28;20026;-70
2022/01/31 05:22:46;;;;;;;8.98;2.90;;;;;;;;;;4990771;28;20034;-72
2022/01/31 05:25:12;;;;;;;7.70;2.78;;;;;;;;;;4987444;28;20043;-71
2022/01/31 05:27:38;;;;;;;11.20;3.33;;;;;;;;;;4985881;28;20031;-72
2022/01/31 05:30:05;;;;;;;5.32;2.17;;;;;;;;;;4985584;28;20049;-71
2022/01/31 05:32:31;;;;;;;7.95;2.80;;;;;;;;;;4996048;28;20034;-71
2022/01/31 05:34:58;;;;;;;9.95;2.70;;;;;;;;;;4981811;28;20070;-71
2022/01/31 05:37:24;;;;;;;11.88;3.30;;;;;;;;;;4987257;28;20472;-71
2022/01/31 05:39:50;;;;;;;11.05;3.58;;;;;;;;;;4980070;28;20031;-71
2022/01/31 05:42:16;;;;;;;9.35;2.60;;;;;;;;;;4985123;28;20049;-71
2022/01/31 05:44:46;;;;;;;10.40;2.55;;;;;;;;;;4982150;28;20026;-71
2022/01/31 05:47:12;;;;;;;9.65;2.55;;;;;;;;;;4985384;28;20478;-70
2022/01/31 05:49:38;;;;;;;8.40;2.58;;;;;;;;;;4987509;28;20038;-71
2022/01/31 05:52:07;;;;;;;8.10;2.58;;;;;;;;;;4974148;28;20023;-71
2022/01/31 05:54:34;;;;;;;14.95;3.28;;;;;;;;;;4981969;28;20032;-71
2022/01/31 05:57:00;;;;;;;12.77;2.97;;;;;;;;;;4973193;28;20412;-71
2022/01/31 05:59:26;;;;;;;9.80;3.08;;;;;;;;;;4976265;28;20022;-70
2022/01/31 06:01:52;;;;;;;7.40;2.80;;;;;;;;;;4981611;28;20050;-71
2022/01/31 06:04:19;;;;;;;12.90;3.00;;;;;;;;;;4983466;28;20112;-71
2022/01/31 06:06:45;;;;;;;13.45;2.78;;;;;;;;;;4983025;28;20044;-73
2022/01/31 06:09:11;;;;;;;6.30;2.65;;;;;;;;;;4983196;28;20062;-71
2022/01/31 06:11:37;;;;;;;9.95;3.58;;;;;;;;;;4983156;28;20101;-71
2022/01/31 06:14:08;;;;;;;6.30;2.42;;;;;;;;;;4979617;28;20027;-70
2022/01/31 06:16:34;;;;;;;9.43;3.72;;;;;;;;;;4986670;28;20031;-71
2022/01/31 06:19:00;;;;;;;10.68;4.25;;;;;;;;;;4981005;28;20027;-70
2022/01/31 06:21:26;;;;;;;12.18;3.75;;;;;;;;;;4977288;28;20019;-71
2022/01/31 06:23:53;;;;;;;9.52;4.20;;;;;;;;;;4984419;28;20055;-70
2022/01/31 06:26:20;;;;;;;12.48;4.47;;;;;;;;;;4979356;28;20058;-69
2022/01/31 06:28:47;;;;;;;10.30;3.72;;;;;;;;;;4975151;28;20528;-71
2022/01/31 06:31:13;;;;;;;10.70;3.60;;;;;;;;;;4980421;28;20425;-72
2022/01/31 06:33:39;;;;;;;17.33;4.03;;;;;;;;;;4997838;28;20062;-71
2022/01/31 06:36:05;;;;;;;9.18;4.38;;;;;;;;;;4982842;28;20500;-72
2022/01/31 06:38:32;;;;;;;10.95;3.30;;;;;;;;;;4989430;28;20092;-71
2022/01/31 06:40:58;;;;;;;13.43;4.72;;;;;;;;;;4989400;28;20026;-71
2022/01/31 06:43:24;;;;;;;9.05;2.70;;;;;;;;;;5002289;28;20030;-70
2022/01/31 06:45:50;;;;;;;11.60;3.65;;;;;;;;;;4977816;28;20095;-71
2022/01/31 06:48:16;;;;;;;7.65;2.40;;;;;;;;;;4988155;28;20489;-71
2022/01/31 06:50:43;;;;;;;11.85;3.63;;;;;;;;;;4975383;28;20062;-70
2022/01/31 06:53:11;;;;;;;6.22;3.15;;;;;;;;;;4982133;28;20050;-70
2022/01/31 06:55:37;;;;;;;6.28;2.78;;;;;;;;;;4981803;28;20050;-71
2022/01/31 06:58:03;;;;;;;13.15;3.58;;;;;;;;;;4976437;28;20046;-71
2022/01/31 07:00:30;;;;;;;8.27;2.35;;;;;;;;;;4976065;28;20037;-72
2022/01/31 07:02:56;;;;;;;14.75;2.80;;;;;;;;;;4990331;28;20113;-72
2022/01/31 07:05:22;;;;;;;14.40;3.13;;;;;;;;;;4988486;28;20037;-72
2022/01/31 07:07:49;;;;;;;11.35;2.83;;;;;;;;;;4991419;28;20027;-71
2022/01/31 07:10:15;;;;;;;8.00;2.80;;;;;;;;;;4978276;28;20402;-71
2022/01/31 07:12:48;;;;;;;9.27;2.83;;;;;;;;;;4987591;28;20041;-72
2022/01/31 07:15:15;;;;;;;11.02;3.47;;;;;;;;;;4976538;28;20520;-70
2022/01/31 07:17:41;;;;;;;10.35;2.30;;;;;;;;;;4983759;28;20422;-71
2022/01/31 07:20:10;;;;;;;12.23;2.97;;;;;;;;;;4985428;28;20610;-71
2022/01/31 07:22:39;;;;;;;10.20;3.60;;;;;;;;;;5000876;28;20076;-70
2022/01/31 07:25:09;;;;;;;12.95;3.30;;;;;;;;;;4985822;28;20294;-72
2022/01/31 07:27:35;;;;;;;7.88;2.80;;;;;;;;;;4982739;28;20050;-72
2022/01/31 07:30:02;;;;;;;14.07;2.90;;;;;;;;;;4994757;28;20030;-70
2022/01/31 07:32:29;;;;;;;8.02;3.53;;;;;;;;;;4986912;28;20023;-71
2022/01/31 07:34:56;;;;;;;10.43;3.28;;;;;;;;;;4993779;28;20118;-71
2022/01/31 07:37:23;;;;;;;11.05;3.30;;;;;;;;;;4983728;28;20090;-72
2022/01/31 07:39:49;;;;;;;8.50;3.03;;;;;;;;;;4984763;28;20098;-72
2022/01/31 07:42:15;;;;;;;10.25;2.53;;;;;;;;;;4986735;28;20354;-72
2022/01/31 07:44:41;;;;;;;13.82;2.60;;;;;;;;;;4993544;28;20490;-71
2022/01/31 07:47:08;;;;;;;11.63;2.92;;;;;;;;;;4987934;28;20060;-72
2022/01/31 07:49:34;;;;;;;9.48;2.47;;;;;;;;;;4984087;28;20038;-71
2022/01/31 07:52:00;;;;;;;8.50;2.63;;;;;;;;;;4998261;28;20570;-71
2022/01/31 07:54:27;;;;;;;11.00;2.90;;;;;;;;;;4985329;28;20065;-72
2022/01/31 07:56:53;;;;;;;10.20;2.72;;;;;;;;;;5009774;28;20038;-72
2022/01/31 07:59:20;;;;;;;12.02;2.78;;;;;;;;;;4989001;28;20030;-71
2022/01/31 08:01:46;;;;;;;7.95;2.95;;;;;;;;;;4993200;28;20068;-72
2022/01/31 08:04:12;;;;;;;15.43;2.85;;;;;;;;;;5005763;28;20443;-70
2022/01/31 08:06:38;;;;;;;10.23;2.88;;;;;;;;;;4982176;28;20085;-71
2022/01/31 08:09:04;;;;;;;12.35;2.90;;;;;;;;;;4980559;28;20073;-71
2022/01/31 08:11:33;;;;;;;11.00;4.20;;;;;;;;;;4987137;28;20030;-71
2022/01/31 08:14:02;;;;;;;5.82;2.53;;;;;;;;;;4985307;28;20021;-71
2022/01/31 08:16:28;;;;;;;12.52;2.60;;;;;;;;;;4985900;28;20019;-71
2022/01/31 08:18:54;;;;;;;13.43;3.85;;;;;;;;;;4990438;28;20026;-72
2022/01/31 08:21:21;;;;;;;8.60;3.13;;;;;;;;;;4983710;28;20022;-72
2022/01/31 08:23:47;;;;;;;9.02;2.90;;;;;;;;;;4987970;28;20019;-72
2022/01/31 08:26:16;;;;;;;9.55;3.20;;;;;;;;;;4988827;28;20066;-71
2022/01/31 08:28:54;;;;;;;7.88;2.85;;;;;;;;;;4996770;28;20030;-71
2022/01/31 08:34:03;;;;;;;13.32;3.13;;;;;;;;;;4982269;28;20058;-72
2022/01/31 08:36:34;;;;;;;11.70;2.50;;;;;;;;;;4994348;28;20031;-71
2022/01/31 08:39:10;;;;;;;12.52;3.22;;;;;;;;;;4977200;28;20026;-71
2022/01/31 08:41:37;;;;;;;11.73;3.90;;;;;;;;;;4974236;28;20025;-71
2022/01/31 08:44:07;;;;;;;10.70;3.20;;;;;;;;;;4981060;28;20154;-71
2022/01/31 08:46:34;;;;;;;8.43;3.25;;;;;;;;;;4996300;28;20040;-72
2022/01/31 08:49:01;;;;;;;8.73;2.58;;;;;;;;;;4980220;28;20054;-72
2022/01/31 08:51:27;;;;;;;11.52;2.72;;;;;;;;;;4983489;28;20027;-72
2022/01/31 08:53:53;;;;;;;9.27;2.78;;;;;;;;;;4997827;28;20034;-73
2022/01/31 08:56:20;;;;;;;8.05;2.80;;;;;;;;;;4983197;28;20026;-70
2022/01/31 08:58:49;;;;;;;10.65;2.78;;;;;;;;;;4982114;28;20106;-71
2022/01/31 09:01:18;;;;;;;13.02;3.58;;;;;;;;;;4981791;28;20457;-72
2022/01/31 09:06:20;;;;;;;7.70;3.10;;;;;;;;;;4983406;28;20041;-73
2022/01/31 09:08:46;;;;;;;6.95;2.88;;;;;;;;;;4977790;28;21737;-71
2022/01/31 09:11:12;;;;;;;12.07;3.33;;;;;;;;;;4974549;28;20065;-72
2022/01/31 09:13:38;;;;;;;6.63;3.35;;;;;;;;;;4973738;28;20086;-70
2022/01/31 09:16:05;;;;;;;14.93;2.60;;;;;;;;;;4978503;28;20535;-71
2022/01/31 09:18:31;;;;;;;11.00;2.75;;;;;;;;;;4979490;28;20027;-70
2022/01/31 09:20:58;;;;;;;11.45;2.95;;;;;;;;;;4983276;28;20413;-71
2022/01/31 09:23:27;;;;;;;12.80;2.78;;;;;;;;;;4977832;28;20031;-71
2022/01/31 09:25:55;;;;;;;8.77;3.58;;;;;;;;;;4981477;28;20045;-71
2022/01/31 09:28:21;;;;;;;10.95;3.80;;;;;;;;;;4994840;28;20034;-72
2022/01/31 09:30:47;;;;;;;9.13;2.83;;;;;;;;;;4983141;28;20034;-72
2022/01/31 09:33:14;;;;;;;10.77;3.13;;;;;;;;;;4984244;28;20040;-73
2022/01/31 09:35:42;;;;;;;11.30;2.95;;;;;;;;;;4980936;28;20018;-72
2022/01/31 09:38:08;;;;;;;10.60;2.85;;;;;;;;;;4978292;28;20108;-72
2022/01/31 09:40:35;;;;;;;14.07;4.22;;;;;;;;;;4996696;28;20100;-72
2022/01/31 09:48:33;;;;;;;7.18;3.97;;;;;;;;;;4982536;28;20039;-72
2022/01/31 09:50:59;;;;;;;7.90;3.17;;;;;;;;;;4981854;28;20026;-72
2022/01/31 09:53:26;;;;;;;7.95;3.33;;;;;;;;;;4995382;28;20584;-72
2022/01/31 09:55:54;;;;;;;7.95;3.63;;;;;;;;;;4982382;28;20108;-72
2022/01/31 09:58:20;;;;;;;11.85;3.00;;;;;;;;;;4983910;28;20034;-72
2022/01/31 10:00:46;;;;;;;13.77;3.28;;;;;;;;;;4981160;28;21410;-73
2022/01/31 10:03:13;;;;;;;10.75;3.03;;;;;;;;;;4971984;28;20065;-72
2022/01/31 10:05:40;;;;;;;9.35;3.40;;;;;;;;;;4975654;28;20488;-74
2022/01/31 10:08:13;;;;;;;8.90;3.60;;;;;;;;;;4975672;28;20999;-72
2022/01/31 10:10:41;;;;;;;9.57;3.92;;;;;;;;;;4979695;28;20443;-71
2022/01/31 10:16:30;;;;;;;9.65;4.20;;;;;;;;;;4979094;28;20141;-72
2022/01/31 10:19:01;;;;;;;9.55;3.97;;;;;;;;;;4979786;28;20030;-72
2022/01/31 10:21:27;;;;;;;10.18;3.75;;;;;;;;;;4984032;28;20431;-73
2022/01/31 10:23:53;;;;;;;14.50;5.03;;;;;;;;;;4985987;28;20030;-72
2022/01/31 10:26:32;;;;;;;13.75;4.72;;;;;;;;;;4982923;28;20500;-72
2022/01/31 10:29:12;;;;;;;7.60;4.20;;;;;;;;;;4998788;28;20061;-72
2022/01/31 10:31:38;;;;;;;12.30;3.65;;;;;;;;;;4984625;28;20145;-72
2022/01/31 10:34:18;;;;;;;14.90;4.03;;;;;;;;;;5007300;28;20682;-71
2022/01/31 10:36:44;;;;;;;10.15;3.17;;;;;;;;;;4984203;28;20097;-71
2022/01/31 10:43:12;;;;;;;10.10;3.67;;;;;;;;;;4983163;28;20113;-72
2022/01/31 10:53:10;;;;;;;10.57;3.25;;;;;;;;;;4982948;28;21565;-71
2022/01/31 10:55:36;;;;;;;8.80;3.25;;;;;;;;;;4985320;28;20073;-71
2022/01/31 10:58:06;;;;;;;8.77;2.88;;;;;;;;;;4986995;28;20136;-70
2022/01/31 11:00:37;;;;;;;6.55;2.45;;;;;;;;;;4983489;28;20026;-70
2022/01/31 11:03:21;;;;;;;7.10;2.63;;;;;;;;;;4985424;28;20046;-70
2022/01/31 11:05:51;;;;;;;7.65;2.55;;;;;;;;;;4985631;28;20752;-70
2022/01/31 11:08:17;;;;;;;8.32;2.70;;;;;;;;;;4984400;28;20030;-71
2022/01/31 11:10:44;;;;;;;11.13;3.80;;;;;;;;;;4986066;28;20078;-71
2022/01/31 11:13:10;;;;;;;8.43;2.95;;;;;;;;;;4998881;28;20030;-71
2022/01/31 11:15:39;;;;;;;10.07;2.97;;;;;;;;;;4982997;28;20034;-69
2022/01/31 11:18:06;;;;;;;6.85;2.63;;;;;;;;;;4983301;28;20026;-70
2022/01/31 11:20:33;;;;;;;11.25;4.03;;;;;;;;;;4985516;28;20030;-72
2022/01/31 11:23:00;;;;;;;7.75;2.63;;;;;;;;;;4981356;28;20054;-70
2022/01/31 11:25:29;;;;;;;12.60;3.50;;;;;;;;;;4985936;28;20053;-71
2022/01/31 11:27:59;;;;;;;9.35;2.90;;;;;;;;;;4982617;28;20061;-73
2022/01/31 11:30:25;;;;;;;11.10;2.92;;;;;;;;;;4985968;28;20129;-71
2022/01/31 11:32:52;;;;;;;5.07;3.00;;;;;;;;;;4986251;28;20030;-71
2022/01/31 11:35:18;;;;;;;5.57;3.42;;;;;;;;;;4981249;28;20022;-71
2022/01/31 11:37:44;;;;;;;10.63;3.38;;;;;;;;;;4983057;28;20022;-71
2022/01/31 11:40:12;;;;;;;12.93;3.03;;;;;;;;;;4983021;28;20045;-72
2022/01/31 11:42:41;;;;;;;8.27;2.95;;;;;;;;;;4984225;28;20579;-72
2022/01/31 11:45:08;;;;;;;7.22;4.10;;;;;;;;;;4997061;28;20038;-72
2022/01/31 11:47:36;;;;;;;8.40;3.33;;;;;;;;;;4982373;28;20459;-71
2022/01/31 11:50:04;;;;;;;11.73;3.15;;;;;;;;;;4983632;28;20030;-71
2022/01/31 11:52:32;;;;;;;9.52;3.40;;;;;;;;;;4996392;28;20034;-72
2022/01/31 11:55:00;;;;;;;7.65;2.70;;;;;;;;;;4976760;28;20824;-73
2022/01/31 11:57:28;;;;;;;6.95;2.58;;;;;;;;;;4976462;28;20110;-72
2022/01/31 11:59:55;;;;;;;10.68;3.22;;;;;;;;;;4977142;28;20035;-72
2022/01/31 12:02:22;;;;;;;6.95;2.30;;;;;;;;;;4974392;28;20050;-72
2022/01/31 12:04:49;;;;;;;8.82;2.60;;;;;;;;;;4975479;28;20031;-71
2022/01/31 12:07:39;;;;;;;7.80;2.63;;;;;;;;;;4994897;28;20100;-73
2022/01/31 12:10:07;;;;;;;12.68;2.50;;;;;;;;;;4978051;28;20730;-72
2022/01/31 12:12:45;;;;;;;10.68;2.55;;;;;;;;;;4981187;28;20037;-71
2022/01/31 12:23:54;;;;;;;5.18;2.53;;;;;;;;;;4981239;28;20401;-71
2022/01/31 12:26:27;;;;;;;13.32;3.67;;;;;;;;;;4981505;28;20477;-71
2022/01/31 12:28:54;;;;;;;7.80;3.05;;;;;;;;;;4979494;28;20037;-72
2022/01/31 12:31:23;;;;;;;10.63;3.28;;;;;;;;;;4981538;28;20069;-72
2022/01/31 12:33:49;;;;;;;9.35;3.30;;;;;;;;;;4984600;28;20029;-71
2022/01/31 12:36:26;;;;;;;6.43;3.38;;;;;;;;;;4980775;28;20027;-70
2022/01/31 12:38:52;;;;;;;7.25;2.80;;;;;;;;;;4995177;28;20038;-70
2022/01/31 12:41:29;;;;;;;7.82;2.92;;;;;;;;;;4974075;28;20030;-71
2022/01/31 12:44:15;;;;;;;8.25;3.75;;;;;;;;;;4977603;28;20038;-72
2022/01/31 12:46:41;;;;;;;;;;;;;;;;;;4975483;28;20396;-72
2022/01/31 12:49:08;;;;;;;;;;;;;;;;;;4972853;28;20563;-72
2022/01/31 12:51:54;;;;;;;12.25;3.00;;;;;;;;;;4973488;28;19913;-72
2022/01/31 12:54:24;;;;;;;14.88;3.38;;;;;;;;;;4973817;28;20034;-72
2022/01/31 12:56:50;;;;;;;13.13;4.00;;;;;;;;;;4975190;28;20037;-72
2022/01/31 12:59:19;;;;;;;7.47;2.72;;;;;;;;;;4982170;28;20026;-71
2022/01/31 13:01:47;;;;;;;15.95;3.25;;;;;;;;;;4974835;28;20199;-70
2022/01/31 13:04:14;;;;;;;5.32;2.63;;;;;;;;;;4974061;28;20523;-72
2022/01/31 13:06:45;;;;;;;8.13;2.90;;;;;;;;;;4976560;28;20041;-72
2022/01/31 13:09:13;;;;;;;13.05;4.20;;;;;;;;;;4975307;28;20042;-72
2022/01/31 13:11:41;;;;;;;11.80;4.38;;;;;;;;;;4971056;28;20030;-70
2022/01/31 13:14:17;;;;;;;12.75;4.85;;;;;;;;;;4973413;28;20117;-72
2022/01/31 13:16:58;;;;;;;10.02;4.10;;;;;;;;;;4976799;28;20113;-72
2022/01/31 13:19:25;;;;;;;17.98;4.95;;;;;;;;;;4975952;28;20166;-72
2022/01/31 13:21:52;;;;;;;20.48;5.78;;;;;;;;;;4975842;28;20201;-72
2022/01/31 13:24:19;;;;;;;9.88;4.97;;;;;;;;;;4975654;28;20030;-72
2022/01/31 13:26:52;;;;;;;11.23;3.85;;;;;;;;;;4974542;28;20033;-73
2022/01/31 13:29:39;;;;;;;13.25;4.97;;;;;;;;;;4976454;28;20054;-72
2022/01/31 13:32:15;;;;;;;7.38;4.22;;;;;;;;;;4977909;28;21893;-72
2022/01/31 13:34:42;;;;;;;10.18;4.55;;;;;;;;;;4980600;28;20049;-71
2022/01/31 13:37:36;;;;;;;10.05;3.50;;;;;;;;;;4981456;28;20146;-71
2022/01/31 13:40:05;;;;;;;8.77;4.25;;;;;;;;;;4980576;28;20035;-70
2022/01/31 13:42:37;;;;;;;11.30;3.67;;;;;;;;;;4982615;28;20026;-70
2022/01/31 13:45:05;;;;;;;18.25;5.13;;;;;;;;;;4980678;28;20030;-69
2022/01/31 13:47:46;;;;;;;11.05;4.05;;;;;;;;;;4981018;28;20034;-71
2022/01/31 13:50:15;;;;;;;16.05;4.75;;;;;;;;;;4980013;28;20085;-71
2022/01/31 13:52:50;;;;;;;18.20;3.88;;;;;;;;;;4977831;28;20084;-71
2022/01/31 13:55:17;;;;;;;8.63;3.33;;;;;;;;;;4983269;28;20041;-71
2022/01/31 13:57:44;;;;;;;12.85;4.47;;;;;;;;;;4983180;28;20030;-70
2022/01/31 14:00:10;;;;;;;11.38;4.00;;;;;;;;;;4986951;28;20054;-71
2022/01/31 14:02:39;;;;;;;17.65;4.65;;;;;;;;;;4991169;28;20145;-72
2022/01/31 14:05:25;;;;;;;11.38;4.05;;;;;;;;;;4991821;28;20129;-71
2022/01/31 14:08:05;;;;;;;7.55;2.92;;;;;;;;;;4994565;28;20087;-71
2022/01/31 14:10:31;;;;;;;9.98;3.58;;;;;;;;;;4988098;28;20046;-71
2022/01/31 14:13:02;;;;;;;8.73;4.65;;;;;;;;;;4989994;28;20030;-72
2022/01/31 14:15:29;;;;;;;12.68;4.57;;;;;;;;;;4986111;28;20065;-72
2022/01/31 14:17:55;;;;;;;12.45;4.47;;;;;;;;;;4982446;28;20543;-71
2022/01/31 14:20:24;;;;;;;8.75;3.70;;;;;;;;;;4997863;28;20037;-71
2022/01/31 14:22:58;;;;;;;10.55;4.25;;;;;;;;;;4989005;28;20026;-70
2022/01/31 14:25:24;;;;;;;14.98;3.90;;;;;;;;;;4986238;28;20137;-70
2022/01/31 14:27:53;;;;;;;13.50;3.70;;;;;;;;;;4992651;28;20080;-70
2022/01/31 14:30:20;;;;;;;12.32;4.18;;;;;;;;;;4985959;28;20753;-70
2022/01/31 14:33:18;;;;;;;;;;;;;;;;;;;;;
2022/01/31 14:35:44;;;;;;;10.50;5.10;;;;;;;;;;4985723;28;20038;-70
2022/01/31 14:38:20;;;;;;;13.80;3.83;;;;;;;;;;4986731;28;20523;-71
2022/01/31 14:49:04;;;;;;;49.17;23.30;;;;;;;;;;4986964;28;20073;-71
2022/01/31 14:51:31;;;;;;;41.58;22.83;;;;;;;;;;4986604;28;20343;-72
2022/01/31 14:53:58;;;;;;;29.63;12.55;;;;;;;;;;4986672;28;20435;-72
2022/01/31 14:56:24;;;;;;;15.20;7.10;;;;;;;;;;5002382;28;20030;-71
2022/01/31 14:58:50;;;;;;;13.10;4.57;;;;;;;;;;4987403;28;20033;-70
2022/01/31 15:01:17;;;;;;;13.80;6.90;;;;;;;;;;4983898;28;20030;-70
2022/01/31 15:03:43;;;;;;;16.90;7.78;;;;;;;;;;4985269;28;20057;-71
2022/01/31 15:06:09;;;;;;;14.77;6.78;;;;;;;;;;4984409;28;20027;-70
2022/01/31 15:08:35;;;;;;;29.38;16.35;;;;;;;;;;4985828;28;20043;-70
2022/01/31 15:11:02;;;;;;;15.52;7.45;;;;;;;;;;4982737;28;20116;-71
2022/01/31 15:13:28;;;;;;;16.83;5.55;;;;;;;;;;4977837;28;20026;-69
2022/01/31 15:15:56;;;;;;;15.70;8.35;;;;;;;;;;4986527;28;20469;-70
2022/01/31 15:18:22;;;;;;;21.58;10.02;;;;;;;;;;4979933;28;20035;-70
2022/01/31 15:20:48;;;;;;;15.60;9.88;;;;;;;;;;4984897;28;20034;-70
2022/01/31 15:23:20;;;;;;;27.95;17.13;;;;;;;;;;4983165;28;20041;-69
2022/01/31 15:25:46;;;;;;;11.30;5.30;;;;;;;;;;4983146;28;20031;-70